createdAt,value
2018-12-27T00:02:06.069Z,77.00
2018-12-27T00:04:35.454Z,77.10
2018-12-27T00:07:04.630Z,77.60
2018-12-27T00:09:33.862Z,77.40
2018-12-27T00:12:03.115Z,77.70
2018-12-27T00:14:32.570Z,77.70
2018-12-27T00:17:01.749Z,78.00
2018-12-27T00:19:31.029Z,77.80
2018-12-27T00:22:00.203Z,77.70
2018-12-27T00:24:29.480Z,77.60
2018-12-27T00:26:58.683Z,77.80
2018-12-27T00:29:27.905Z,77.30
2018-12-27T00:31:57.244Z,77.50
2018-12-27T00:34:26.677Z,77.30
2018-12-27T00:36:56.121Z,77.80
2018-12-27T00:39:25.473Z,78.40
2018-12-27T00:41:54.828Z,78.10
2018-12-27T00:44:24.165Z,77.30
2018-12-27T00:46:53.893Z,77.10
2018-12-27T00:49:23.220Z,77.00
2018-12-27T00:51:52.576Z,76.50
2018-12-27T00:54:21.905Z,77.10
2018-12-27T00:56:51.320Z,76.90
2018-12-27T00:59:20.989Z,77.20
2018-12-27T01:01:50.377Z,77.80
2018-12-27T01:04:19.817Z,77.70
2018-12-27T01:06:49.144Z,77.30
2018-12-27T01:09:18.584Z,76.90
2018-12-27T01:11:47.949Z,77.30
2018-12-27T01:14:17.299Z,77.00
2018-12-27T01:16:46.692Z,77.40
2018-12-27T01:19:16.218Z,77.70
2018-12-27T01:21:45.561Z,77.90
2018-12-27T01:24:14.950Z,77.90
2018-12-27T01:26:44.289Z,78.50
2018-12-27T01:29:13.552Z,78.40
2018-12-27T01:31:50.418Z,78.60
2018-12-27T01:34:14.000Z,78.50
2018-12-27T01:36:43.325Z,78.20
2018-12-27T01:39:12.685Z,78.30
2018-12-27T01:41:42.042Z,78.20
2018-12-27T01:44:11.468Z,77.90
2018-12-27T01:46:40.875Z,77.30
2018-12-27T01:49:10.208Z,76.90
2018-12-27T01:51:39.762Z,76.60
2018-12-27T01:54:09.142Z,76.50
2018-12-27T01:56:38.425Z,76.80
2018-12-27T01:59:07.787Z,76.80
2018-12-27T02:01:37.219Z,77.50
2018-12-27T02:04:06.752Z,77.50
2018-12-27T02:06:36.109Z,78.30
2018-12-27T02:09:05.725Z,78.30
2018-12-27T02:11:34.999Z,77.80
2018-12-27T02:14:04.349Z,78.10
2018-12-27T02:16:33.705Z,78.50
2018-12-27T02:19:03.067Z,78.40
2018-12-27T02:21:32.370Z,78.30
2018-12-27T02:24:01.764Z,77.80
2018-12-27T02:26:31.117Z,77.90
2018-12-27T02:29:00.556Z,78.20
2018-12-27T02:31:30.121Z,78.60
2018-12-27T02:33:59.637Z,79.30
2018-12-27T02:36:28.998Z,78.70
2018-12-27T02:38:58.273Z,77.80
2018-12-27T02:41:27.628Z,77.50
2018-12-27T02:43:57.058Z,77.00
2018-12-27T02:46:26.426Z,76.20
2018-12-27T02:48:56.033Z,76.70
2018-12-27T02:51:25.376Z,76.10
2018-12-27T02:53:54.690Z,76.80
2018-12-27T02:56:24.026Z,76.40
2018-12-27T02:58:53.421Z,76.60
2018-12-27T03:01:22.755Z,77.10
2018-12-27T03:03:52.096Z,77.00
2018-12-27T03:06:21.426Z,77.40
2018-12-27T03:08:50.842Z,78.30
2018-12-27T03:11:20.113Z,77.90
2018-12-27T03:13:49.766Z,77.80
2018-12-27T03:16:19.097Z,77.30
2018-12-27T03:18:48.646Z,77.00
2018-12-27T03:21:17.981Z,76.40
2018-12-27T03:23:47.275Z,76.90
2018-12-27T03:26:16.684Z,76.30
2018-12-27T03:28:46.032Z,76.00
2018-12-27T03:31:15.467Z,76.50
2018-12-27T03:33:52.454Z,76.70
2018-12-27T03:36:16.342Z,77.30
2018-12-27T03:38:45.849Z,77.70
2018-12-27T03:41:15.191Z,77.70
2018-12-27T03:43:44.567Z,77.90
2018-12-27T03:46:14.041Z,77.90
2018-12-27T03:48:43.470Z,77.80
2018-12-27T03:51:12.838Z,77.30
2018-12-27T03:53:42.229Z,76.80
2018-12-27T03:56:11.557Z,77.00
2018-12-27T03:58:40.924Z,77.30
2018-12-27T04:01:10.371Z,77.20
2018-12-27T04:03:39.654Z,77.10
2018-12-27T04:06:09.119Z,77.40
2018-12-27T04:08:38.464Z,77.10
2018-12-27T04:11:07.877Z,77.20
2018-12-27T04:13:37.276Z,76.70
2018-12-27T04:16:06.512Z,75.70
2018-12-27T04:18:35.722Z,76.10
2018-12-27T04:21:05.002Z,76.00
2018-12-27T04:23:34.735Z,75.80
2018-12-27T04:26:04.732Z,75.50
2018-12-27T04:28:33.916Z,75.60
2018-12-27T04:31:03.313Z,76.00
2018-12-27T04:33:32.962Z,76.30
2018-12-27T04:36:02.730Z,75.70
2018-12-27T04:38:31.919Z,74.90
2018-12-27T04:41:01.082Z,75.20
2018-12-27T04:43:31.387Z,76.00
2018-12-27T04:46:00.816Z,76.20
2018-12-27T04:48:30.109Z,75.80
2018-12-27T04:50:59.353Z,76.10
2018-12-27T04:53:28.632Z,76.10
2018-12-27T04:55:57.817Z,76.50
2018-12-27T04:58:27.069Z,77.30
2018-12-27T05:00:56.298Z,76.90
2018-12-27T05:03:25.535Z,76.30
2018-12-27T05:05:55.031Z,76.10
2018-12-27T05:08:24.297Z,75.20
2018-12-27T05:10:53.470Z,75.20
2018-12-27T05:13:22.727Z,75.50
2018-12-27T05:15:52.104Z,75.40
2018-12-27T05:18:21.294Z,75.60
2018-12-27T05:20:50.485Z,75.00
2018-12-27T05:23:19.827Z,75.70
2018-12-27T05:25:49.048Z,75.20
2018-12-27T05:28:18.443Z,75.00
2018-12-27T05:30:47.629Z,74.80
2018-12-27T05:33:16.841Z,76.30
2018-12-27T05:35:46.224Z,76.80
2018-12-27T05:38:15.414Z,76.10
2018-12-27T05:40:44.624Z,75.90
2018-12-27T05:43:13.783Z,76.50
2018-12-27T05:45:42.954Z,76.50
2018-12-27T05:48:12.211Z,76.80
2018-12-27T05:50:41.467Z,76.30
2018-12-27T05:53:10.640Z,75.30
2018-12-27T05:55:39.852Z,75.30
2018-12-27T05:58:09.132Z,74.80
2018-12-27T06:00:38.401Z,75.30
2018-12-27T06:03:07.592Z,75.80
2018-12-27T06:05:36.801Z,76.20
2018-12-27T06:08:06.086Z,76.50
2018-12-27T06:10:35.279Z,76.50
2018-12-27T06:13:04.544Z,76.30
2018-12-27T06:15:33.741Z,76.70
2018-12-27T06:18:02.921Z,76.20
2018-12-27T06:20:32.103Z,76.20
2018-12-27T06:23:01.278Z,75.90
2018-12-27T06:25:30.849Z,75.70
2018-12-27T06:28:00.014Z,75.50
2018-12-27T06:30:29.257Z,75.70
2018-12-27T06:32:58.457Z,75.50
2018-12-27T06:35:27.963Z,76.00
2018-12-27T06:37:57.218Z,76.40
2018-12-27T06:40:26.388Z,75.50
2018-12-27T06:42:55.709Z,75.70
2018-12-27T06:45:24.901Z,75.80
2018-12-27T06:47:54.158Z,76.60
2018-12-27T06:50:23.369Z,76.60
2018-12-27T06:52:52.785Z,77.00
2018-12-27T06:55:21.978Z,77.30
2018-12-27T06:57:51.474Z,77.10
2018-12-27T07:00:20.768Z,76.70
2018-12-27T07:02:49.988Z,76.00
2018-12-27T07:05:19.188Z,75.80
2018-12-27T07:07:48.987Z,76.50
2018-12-27T07:10:18.261Z,76.80
2018-12-27T07:12:47.548Z,77.00
2018-12-27T07:15:16.717Z,77.40
2018-12-27T07:17:47.735Z,77.60
2018-12-27T07:20:16.998Z,76.80
2018-12-27T07:22:46.312Z,76.70
2018-12-27T07:25:15.676Z,76.70
2018-12-27T07:27:44.862Z,76.20
2018-12-27T07:30:14.057Z,75.80
2018-12-27T07:32:43.241Z,76.00
2018-12-27T07:35:12.491Z,76.30
2018-12-27T07:37:41.685Z,76.10
2018-12-27T07:40:11.043Z,76.10
2018-12-27T07:42:40.266Z,76.30
2018-12-27T07:45:09.564Z,76.50
2018-12-27T07:47:38.984Z,76.50
2018-12-27T07:50:08.201Z,75.80
2018-12-27T07:52:37.358Z,75.40
2018-12-27T07:55:06.770Z,75.30
2018-12-27T07:57:36.061Z,76.10
2018-12-27T08:00:05.567Z,76.70
2018-12-27T08:02:34.731Z,76.50
2018-12-27T08:05:04.612Z,77.30
2018-12-27T08:07:33.960Z,75.90
2018-12-27T08:10:03.342Z,75.70
2018-12-27T08:12:32.527Z,75.60
2018-12-27T08:15:01.819Z,75.80
2018-12-27T08:17:31.152Z,75.70
2018-12-27T08:20:00.337Z,75.40
2018-12-27T08:22:29.698Z,75.70
2018-12-27T08:24:58.922Z,75.10
2018-12-27T08:27:28.173Z,74.70
2018-12-27T08:29:57.498Z,75.40
2018-12-27T08:32:26.800Z,75.30
2018-12-27T08:34:55.993Z,74.80
2018-12-27T08:37:25.361Z,75.10
2018-12-27T08:39:54.522Z,75.50
2018-12-27T08:42:23.776Z,74.80
2018-12-27T08:44:53.121Z,74.00
2018-12-27T08:47:22.425Z,73.70
2018-12-27T08:49:51.599Z,73.40
2018-12-27T08:52:20.998Z,74.00
2018-12-27T08:54:50.376Z,73.90
2018-12-27T08:57:19.535Z,73.60
2018-12-27T08:59:48.763Z,73.50
2018-12-27T09:02:18.165Z,72.90
2018-12-27T09:04:47.402Z,73.50
2018-12-27T09:07:16.549Z,72.90
2018-12-27T09:09:45.741Z,73.20
2018-12-27T09:12:15.090Z,73.10
2018-12-27T09:14:44.469Z,73.00
2018-12-27T09:17:13.628Z,72.20
2018-12-27T09:19:42.874Z,71.90
2018-12-27T09:22:12.185Z,72.70
2018-12-27T09:24:41.521Z,72.50
2018-12-27T09:27:10.789Z,72.70
2018-12-27T09:29:40.016Z,72.60
2018-12-27T09:32:09.149Z,72.80
2018-12-27T09:34:39.573Z,72.50
2018-12-27T09:37:08.796Z,72.50
2018-12-27T09:39:37.999Z,72.90
2018-12-27T09:42:07.286Z,72.90
2018-12-27T09:44:36.666Z,72.50
2018-12-27T09:47:05.864Z,72.10
2018-12-27T09:49:35.284Z,72.50
2018-12-27T09:52:04.611Z,72.00
2018-12-27T09:54:33.775Z,72.50
2018-12-27T09:57:03.100Z,72.20
2018-12-27T09:59:32.820Z,71.80
2018-12-27T10:02:02.013Z,72.10
2018-12-27T10:04:31.169Z,72.00
2018-12-27T10:07:00.349Z,71.70
2018-12-27T10:09:29.500Z,71.10
2018-12-27T10:11:58.692Z,70.90
2018-12-27T10:14:28.020Z,71.70
2018-12-27T10:16:57.260Z,71.50
2018-12-27T10:19:26.513Z,70.70
2018-12-27T10:21:55.762Z,70.60
2018-12-27T10:24:25.092Z,70.80
2018-12-27T10:26:54.452Z,71.10
2018-12-27T10:29:23.667Z,71.50
2018-12-27T10:31:53.047Z,72.00
2018-12-27T10:34:22.217Z,71.80
2018-12-27T10:36:51.508Z,71.80
2018-12-27T10:39:20.654Z,71.10
2018-12-27T10:41:49.833Z,71.30
2018-12-27T10:44:18.961Z,71.90
2018-12-27T10:46:48.221Z,72.20
2018-12-27T10:49:17.373Z,71.00
2018-12-27T10:51:46.572Z,70.60
2018-12-27T10:54:15.732Z,70.50
2018-12-27T10:56:45.001Z,70.30
2018-12-27T10:59:14.266Z,69.50
2018-12-27T11:01:43.439Z,70.30
2018-12-27T11:04:12.671Z,69.40
2018-12-27T11:06:41.842Z,69.40
2018-12-27T11:09:11.150Z,69.10
2018-12-27T11:11:40.394Z,70.80
2018-12-27T11:14:09.583Z,69.30
2018-12-27T11:16:38.729Z,69.10
2018-12-27T11:19:07.935Z,70.30
2018-12-27T11:21:37.088Z,70.00
2018-12-27T11:24:06.275Z,69.00
2018-12-27T11:26:35.412Z,68.60
2018-12-27T11:29:04.619Z,68.10
2018-12-27T11:31:33.833Z,67.00
2018-12-27T11:34:03.103Z,67.90
2018-12-27T11:36:32.272Z,67.70
2018-12-27T11:39:01.713Z,67.80
2018-12-27T11:41:30.869Z,67.30
2018-12-27T11:44:00.154Z,67.30
2018-12-27T11:46:29.324Z,67.00
2018-12-27T11:48:58.502Z,67.40
2018-12-27T11:51:27.883Z,66.80
2018-12-27T11:53:57.145Z,67.60
2018-12-27T11:56:26.335Z,69.20
2018-12-27T11:58:55.723Z,69.70
2018-12-27T12:01:24.865Z,69.20
2018-12-27T12:03:54.143Z,69.50
2018-12-27T12:06:23.469Z,69.70
2018-12-27T12:08:52.723Z,70.40
2018-12-27T12:11:22.019Z,70.40
2018-12-27T12:13:51.361Z,69.90
2018-12-27T12:16:20.536Z,68.90
2018-12-27T12:18:49.672Z,69.00
2018-12-27T12:21:19.125Z,68.80
2018-12-27T12:23:48.272Z,68.70
2018-12-27T12:26:17.412Z,68.90
2018-12-27T12:28:46.564Z,68.70
2018-12-27T12:31:15.741Z,68.00
2018-12-27T12:33:44.908Z,67.90
2018-12-27T12:36:14.076Z,67.90
2018-12-27T12:38:43.428Z,67.60
2018-12-27T12:41:12.664Z,67.40
2018-12-27T12:43:41.836Z,67.60
2018-12-27T12:46:11.180Z,67.50
2018-12-27T12:48:40.421Z,67.40
2018-12-27T12:51:09.595Z,67.30
2018-12-27T12:53:38.829Z,67.40
2018-12-27T12:56:08.073Z,67.90
2018-12-27T12:58:37.242Z,67.70
2018-12-27T13:01:07.481Z,66.80
2018-12-27T13:03:36.926Z,64.60
2018-12-27T13:06:06.144Z,64.10
2018-12-27T13:08:35.315Z,63.90
2018-12-27T13:11:04.489Z,63.50
2018-12-27T13:13:33.704Z,62.50
2018-12-27T13:16:05.223Z,61.90
2018-12-27T13:18:34.421Z,60.80
2018-12-27T13:21:03.568Z,59.30
2018-12-27T13:23:32.868Z,59.90
2018-12-27T13:26:02.076Z,59.80
2018-12-27T13:28:31.412Z,60.00
2018-12-27T13:31:00.747Z,60.40
2018-12-27T13:33:30.101Z,60.70
2018-12-27T13:35:59.267Z,61.40
2018-12-27T13:38:28.472Z,61.60
2018-12-27T13:40:57.619Z,61.50
2018-12-27T13:43:27.143Z,61.50
2018-12-27T13:45:56.295Z,61.40
2018-12-27T13:48:25.727Z,61.20
2018-12-27T13:50:54.909Z,61.70
2018-12-27T13:53:24.059Z,62.00
2018-12-27T13:55:53.254Z,62.10
2018-12-27T13:58:22.423Z,62.50
2018-12-27T14:00:51.653Z,63.50
2018-12-27T14:03:20.805Z,64.20
2018-12-27T14:05:49.983Z,64.80
2018-12-27T14:08:19.197Z,65.60
2018-12-27T14:10:48.372Z,67.20
2018-12-27T14:13:17.539Z,69.30
2018-12-27T14:15:46.825Z,70.30
2018-12-27T14:18:16.072Z,71.20
2018-12-27T14:20:45.328Z,70.90
2018-12-27T14:23:14.600Z,71.90
2018-12-27T14:25:43.778Z,72.10
2018-12-27T14:28:13.014Z,72.70
2018-12-27T14:30:42.223Z,73.70
2018-12-27T14:33:11.456Z,74.10
2018-12-27T14:35:40.801Z,74.50
2018-12-27T14:38:09.960Z,74.20
2018-12-27T14:40:39.524Z,74.50
2018-12-27T14:43:08.715Z,74.80
2018-12-27T14:45:37.840Z,75.50
2018-12-27T14:48:07.056Z,75.60
2018-12-27T14:50:36.280Z,75.40
2018-12-27T14:53:05.497Z,75.60
2018-12-27T14:55:34.662Z,75.60
2018-12-27T14:58:03.853Z,75.90
2018-12-27T15:00:33.023Z,75.80
2018-12-27T15:03:02.211Z,75.60
2018-12-27T15:05:31.387Z,76.20
2018-12-27T15:08:00.548Z,77.00
2018-12-27T15:10:29.788Z,77.70
2018-12-27T15:12:58.932Z,76.50
2018-12-27T15:15:28.118Z,77.70
2018-12-27T15:17:57.296Z,76.80
2018-12-27T15:20:26.456Z,76.70
2018-12-27T15:22:55.613Z,76.80
2018-12-27T15:25:24.795Z,77.90
2018-12-27T15:27:53.930Z,77.60
2018-12-27T15:30:23.154Z,77.00
2018-12-27T15:32:52.315Z,76.90
2018-12-27T15:35:21.456Z,77.40
2018-12-27T15:37:50.802Z,77.50
2018-12-27T15:40:20.141Z,77.10
2018-12-27T15:42:49.482Z,77.10
2018-12-27T15:45:18.660Z,77.40
2018-12-27T15:47:47.811Z,77.30
2018-12-27T15:50:17.194Z,77.30
2018-12-27T15:52:46.395Z,76.80
2018-12-27T15:55:15.577Z,77.60
2018-12-27T15:57:44.861Z,77.30
2018-12-27T16:00:14.220Z,77.40
2018-12-27T16:02:43.564Z,77.50
2018-12-27T16:05:13.023Z,77.90
2018-12-27T16:07:42.233Z,78.20
2018-12-27T16:10:11.476Z,78.20
2018-12-27T16:12:40.742Z,78.40
2018-12-27T16:15:10.075Z,78.90
2018-12-27T16:17:39.277Z,79.30
2018-12-27T16:20:08.546Z,79.50
2018-12-27T16:22:37.884Z,79.40
2018-12-27T16:25:07.016Z,79.30
2018-12-27T16:27:36.190Z,79.40
2018-12-27T16:30:05.557Z,79.10
2018-12-27T16:32:34.749Z,78.70
2018-12-27T16:35:03.913Z,79.20
2018-12-27T16:37:33.436Z,79.20
2018-12-27T16:40:02.704Z,79.30
2018-12-27T16:42:31.990Z,79.60
2018-12-27T16:45:01.257Z,79.90
2018-12-27T16:47:30.566Z,79.70
2018-12-27T16:49:59.739Z,80.00
2018-12-27T16:52:29.092Z,80.00
2018-12-27T16:54:58.240Z,79.90
2018-12-27T16:57:27.662Z,80.20
2018-12-27T16:59:56.845Z,80.60
2018-12-27T17:02:26.020Z,79.70
2018-12-27T17:04:55.215Z,79.70
2018-12-27T17:07:24.515Z,79.60
2018-12-27T17:09:53.781Z,80.00
2018-12-27T17:12:23.144Z,80.00
2018-12-27T17:14:52.400Z,80.00
2018-12-27T17:17:21.629Z,80.00
2018-12-27T17:19:50.925Z,79.90
2018-12-27T17:22:20.076Z,80.00
2018-12-27T17:24:49.273Z,80.30
2018-12-27T17:27:18.444Z,80.50
2018-12-27T17:29:47.796Z,80.30
2018-12-27T17:32:16.976Z,80.50
2018-12-27T17:34:46.140Z,80.40
2018-12-27T17:37:15.411Z,80.00
2018-12-27T17:39:44.670Z,80.50
2018-12-27T17:42:14.133Z,80.60
2018-12-27T17:44:43.348Z,80.90
2018-12-27T17:47:12.609Z,80.80
2018-12-27T17:49:41.811Z,80.80
2018-12-27T17:52:10.993Z,80.60
2018-12-27T17:54:40.226Z,80.50
2018-12-27T17:57:09.416Z,80.30
2018-12-27T17:59:38.728Z,80.50
2018-12-27T18:02:07.932Z,80.30
2018-12-27T18:04:37.100Z,80.50
2018-12-27T18:07:06.293Z,80.30
2018-12-27T18:09:35.558Z,80.10
2018-12-27T18:12:04.756Z,80.60
2018-12-27T18:14:34.073Z,80.90
2018-12-27T18:17:03.337Z,81.00
2018-12-27T18:19:32.676Z,80.70
2018-12-27T18:22:01.914Z,80.30
2018-12-27T18:24:31.096Z,80.50
2018-12-27T18:27:00.529Z,80.60
2018-12-27T18:29:29.716Z,81.00
2018-12-27T18:31:59.060Z,80.90
2018-12-27T18:34:28.257Z,80.80
2018-12-27T18:36:57.572Z,81.00
2018-12-27T18:39:26.758Z,80.90
2018-12-27T18:41:56.072Z,81.30
2018-12-27T18:44:25.287Z,80.60
2018-12-27T18:46:54.716Z,80.80
2018-12-27T18:49:23.972Z,81.00
2018-12-27T18:51:53.182Z,80.50
2018-12-27T18:54:22.365Z,81.70
2018-12-27T18:56:51.885Z,82.30
2018-12-27T18:59:21.109Z,80.70
2018-12-27T19:01:50.260Z,80.70
2018-12-27T19:04:19.557Z,81.20
2018-12-27T19:06:48.870Z,80.60
2018-12-27T19:09:18.089Z,80.40
2018-12-27T19:12:23.542Z,80.90
2018-12-27T19:14:54.615Z,81.40
2018-12-27T19:17:28.473Z,80.20
2018-12-27T19:19:57.672Z,80.10
2018-12-27T19:22:48.578Z,80.50
2018-12-27T19:25:17.929Z,80.10
2018-12-27T19:27:47.107Z,80.50
2018-12-27T19:30:16.741Z,80.70
2018-12-27T19:32:47.201Z,81.10
2018-12-27T19:35:16.480Z,81.10
2018-12-27T19:37:51.885Z,81.00
2018-12-27T19:40:16.844Z,80.60
2018-12-27T19:42:46.027Z,80.70
2018-12-27T19:45:15.237Z,80.60
2018-12-27T19:47:44.451Z,80.70
2018-12-27T19:50:14.246Z,80.10
2018-12-27T19:52:43.428Z,80.00
2018-12-27T19:55:12.773Z,80.10
2018-12-27T19:57:41.928Z,80.30
2018-12-27T20:00:11.264Z,80.30
2018-12-27T20:02:40.464Z,80.70
2018-12-27T20:05:09.708Z,81.00
2018-12-27T20:07:39.048Z,81.00
2018-12-27T20:10:08.292Z,80.80
2018-12-27T20:12:37.662Z,80.90
2018-12-27T20:15:07.465Z,81.00
2018-12-27T20:17:36.857Z,80.70
2018-12-27T20:20:07.144Z,80.90
2018-12-27T20:22:36.408Z,80.80
2018-12-27T20:25:06.620Z,81.20
2018-12-27T20:27:35.834Z,81.30
2018-12-27T20:30:06.313Z,81.00
2018-12-27T20:32:37.447Z,81.40
2018-12-27T20:35:06.774Z,81.30
2018-12-27T20:37:36.145Z,80.70
2018-12-27T20:40:05.594Z,80.80
2018-12-27T20:42:34.873Z,80.70
2018-12-27T20:45:04.241Z,80.10
2018-12-27T20:47:33.408Z,80.40
2018-12-27T20:50:02.632Z,80.50
2018-12-27T20:52:32.537Z,81.40
2018-12-27T20:55:01.727Z,81.40
2018-12-27T20:57:31.288Z,81.10
2018-12-27T21:00:00.506Z,81.20
2018-12-27T21:02:29.715Z,80.80
2018-12-27T21:04:59.018Z,80.80
2018-12-27T21:07:28.161Z,80.80
2018-12-27T21:09:57.597Z,81.50
2018-12-27T21:12:26.800Z,80.90
2018-12-27T21:14:56.102Z,81.10
2018-12-27T21:17:25.304Z,80.90
2018-12-27T21:19:54.485Z,80.80
2018-12-27T21:22:23.913Z,80.60
2018-12-27T21:24:53.096Z,80.60
2018-12-27T21:27:22.346Z,80.70
2018-12-27T21:29:51.641Z,80.80
2018-12-27T21:32:21.042Z,80.70
2018-12-27T21:34:50.212Z,80.80
2018-12-27T21:37:19.621Z,80.70
2018-12-27T21:39:48.867Z,80.70
2018-12-27T21:42:18.050Z,80.50
2018-12-27T21:44:47.322Z,80.20
2018-12-27T21:47:16.484Z,80.30
2018-12-27T21:49:45.767Z,80.70
2018-12-27T21:52:15.185Z,80.90
2018-12-27T21:54:44.618Z,80.80
2018-12-27T21:57:13.818Z,80.50
2018-12-27T21:59:43.071Z,80.90
2018-12-27T22:02:12.252Z,81.20
2018-12-27T22:04:41.438Z,81.70
2018-12-27T22:07:10.895Z,81.50
2018-12-27T22:09:40.124Z,81.50
2018-12-27T22:12:09.347Z,81.50
2018-12-27T22:14:38.514Z,81.00
2018-12-27T22:17:07.876Z,80.80
2018-12-27T22:19:37.225Z,81.10
2018-12-27T22:22:06.424Z,81.00
2018-12-27T22:24:35.757Z,80.90
2018-12-27T22:27:05.037Z,80.60
2018-12-27T22:29:34.202Z,81.00
2018-12-27T22:32:03.472Z,80.70
2018-12-27T22:34:32.662Z,80.40
2018-12-27T22:37:02.126Z,80.20
2018-12-27T22:39:31.309Z,80.30
2018-12-27T22:42:00.663Z,80.30
2018-12-27T22:44:31.790Z,80.40
2018-12-27T22:47:00.944Z,80.50
2018-12-27T22:49:30.223Z,80.40
2018-12-27T22:51:59.570Z,80.40
2018-12-27T22:54:28.773Z,79.90
2018-12-27T22:56:58.197Z,80.00
2018-12-27T22:59:27.521Z,80.20
2018-12-27T23:01:56.960Z,80.40
2018-12-27T23:04:26.166Z,80.70
2018-12-27T23:06:55.379Z,80.70
2018-12-27T23:09:24.707Z,80.50
2018-12-27T23:11:54.269Z,80.80
2018-12-27T23:14:23.442Z,80.80
2018-12-27T23:16:52.637Z,80.40
2018-12-27T23:19:21.816Z,81.00
2018-12-27T23:21:51.016Z,80.40
2018-12-27T23:24:20.328Z,80.40
2018-12-27T23:26:49.593Z,81.40
2018-12-27T23:29:18.852Z,81.50
2018-12-27T23:31:48.120Z,81.20
2018-12-27T23:34:17.368Z,81.20
2018-12-27T23:36:46.898Z,81.30
2018-12-27T23:39:16.261Z,80.60
2018-12-27T23:42:04.757Z,80.60
2018-12-27T23:44:33.909Z,80.60
2018-12-27T23:47:03.311Z,81.40
2018-12-27T23:49:32.585Z,81.10
2018-12-27T23:52:01.830Z,81.10
2018-12-27T23:54:31.089Z,80.90
2018-12-27T23:57:00.653Z,81.60
2018-12-27T23:59:29.812Z,82.10
